Latest Coastal Weather Observations for Rottnest Island

IDW60701

Issued at 1:33 am WST Thursday 3 September 2026 (issued every 10 minutes, with the page automatically refreshed every 10 minutes)

About coastal observations | Map of coastal stations | Coastal observations for WA | Marine services | Other Formats
Station Details ID: 009193 Name: ROTTNEST ISLAND Lat: -32.01 Lon: 115.50 Height: 43.1 m
Data from the previous 72 hours. | See also: Recent months at Rottnest Island
Date/Time
WST
Wind Sea
Height
m
Swell Vis
km
Cloud Weather Temp
°C
Press
MSL
hPa
Rain since
9am
mm
Dir  Spd
kts
Gust
kts
Height
m
Period
s
Dir
03/01:30am S 4 6 - - - - - - - 13.4 1020.5 2.0
03/01:00am SW 9 11 - - - - - - - 13.2 1020.8 1.6
03/12:30am WSW 3 4 - - - - - - - 14.0 1020.8 1.6
03/12:00am WSW 4 6 - - - - - - Recent precip. 14.0 1021.1 1.6
 
Date/Time
WST
Wind Sea
Height
m
Swell Vis
km
Cloud Weather Temp
°C
Press
MSL
hPa
Rain since
9am
mm
Dir  Spd
kts
Gust
kts
Height
m
Period
s
Dir
02/11:30pm CALM 0 0 - - - - - - - 14.7 1021.5 1.6
02/11:00pm SSE 3 4 - - - - - - - 14.5 1021.7 1.4
02/10:30pm SSE 5 5 - - - - - - - 14.4 1021.9 1.4
02/10:00pm SSE 4 5 - - - - - - - 14.5 1022.0 1.4
02/09:30pm CALM 0 0 - - - - - - - 14.4 1022.2 1.4
02/09:00pm S 4 6 - - - - - - Recent precip. 14.5 1022.3 1.4
02/08:30pm S 5 7 - - - - - - - 14.3 1022.2 1.4
02/08:00pm SSW 12 15 - - - - - - - 14.2 1022.0 1.2
02/07:30pm W 12 19 - - - - - - - 15.0 1022.0 0.0
02/07:00pm W 11 17 - - - - - - - 15.2 1021.8 0.0
02/06:30pm WNW 12 15 - - - - - - - 15.7 1021.6 0.0
02/06:00pm W 11 14 - - - - - - - 15.5 1021.4 0.0
02/05:30pm W 11 15 - - - - - - - 15.6 1021.2 0.0
02/05:00pm WNW 11 13 - - - - - - - 16.0 1021.1 0.0
02/04:30pm W 11 14 - - - - - - - 16.2 1021.1 0.0
02/04:00pm WNW 13 16 - - - - - - - 16.8 1021.2 0.0
02/03:30pm W 14 17 - - - - - - - 17.5 1021.2 0.0
02/03:00pm WNW 13 15 - - - - - - - 18.1 1021.3 0.0
02/02:30pm WNW 13 16 - - - - - - - 17.1 1021.4 0.0
02/02:00pm WNW 12 15 - - - - - - - 16.8 1021.6 0.0
02/01:30pm WSW 12 21 - - - - - - - 15.5 1022.0 0.0
02/01:00pm W 11 15 - - - - - - - 16.9 1022.4 0.0
02/12:30pm WNW 11 14 - - - - - - - 17.4 1022.6 0.0
02/12:00pm W 10 12 - - - - - - - 17.8 1022.9 0.0
02/11:30am W 8 11 - - - - - - - 16.9 1023.0 0.0
02/11:00am W 8 17 - - - - - - - 16.6 1023.3 0.0
02/10:30am WSW 9 15 - - - - - - - 16.3 1023.2 0.0
02/10:00am W 10 15 - - - - - - - 16.4 1023.3 0.0
02/09:30am WSW 8 12 - - - - - - - 16.7 1023.2 0.0
02/09:00am WSW 9 12 - - - - - - - 16.4 1023.1 0.0
02/08:30am WSW 9 12 - - - - - - - 15.8 1022.8 0.0
02/08:00am W 10 14 - - - - - - - 15.4 1022.8 0.0
02/07:30am SW 10 15 - - - - - - - 15.3 1022.6 0.0
02/07:00am SW 11 14 - - - - - - - 15.0 1022.4 0.0
02/06:30am W 8 11 - - - - - - - 14.9 1022.3 0.0
02/06:00am WSW 8 11 - - - - - - - 14.7 1022.1 0.0
02/05:30am WSW 9 12 - - - - - - - 14.8 1022.0 0.0
02/05:00am W 8 11 - - - - - - - 14.6 1021.8 0.0
02/04:30am WSW 7 9 - - - - - - - 14.5 1021.9 0.0
02/04:00am WSW 8 10 - - - - - - - 14.5 1022.0 0.0
02/03:30am WSW 10 12 - - - - - - - 14.5 1022.2 0.0
02/03:00am WSW 7 9 - - - - - - - 14.5 1022.4 0.0
02/02:30am WSW 12 15 - - - - - - - 14.6 1022.7 0.0
02/02:00am WSW 8 10 - - - - - - - 14.4 1022.7 0.0
02/01:30am W 9 13 - - - - - - - 14.7 1022.7 0.0
02/01:00am WSW 10 16 - - - - - - - 14.8 1022.8 0.0
02/12:30am WSW 8 12 - - - - - - - 14.8 1022.8 0.0
02/12:00am WSW 8 11 - - - - - - - 14.6 1023.0 0.0
 
Date/Time
WST
Wind Sea
Height
m
Swell Vis
km
Cloud Weather Temp
°C
Press
MSL
hPa
Rain since
9am
mm
Dir  Spd
kts
Gust
kts
Height
m
Period
s
Dir
01/11:30pm SW 6 8 - - - - - - - 14.4 1023.2 0.0
01/11:00pm SW 5 7 - - - - - - - 14.6 1023.3 0.0
01/10:30pm SSW 7 8 - - - - - - - 15.0 1023.6 0.0
01/10:00pm S 7 9 - - - - - - - 14.9 1023.7 0.0
01/09:30pm SSW 6 8 - - - - - - - 14.4 1023.8 0.0
01/09:00pm SW 5 8 - - - - - - - 14.7 1024.0 0.0
01/08:30pm SSW 5 7 - - - - - - - 14.7 1024.0 0.0
01/08:00pm SW 4 5 - - - - - - - 14.8 1024.0 0.0
01/07:30pm SSW 5 6 - - - - - - - 14.6 1023.9 0.0
01/07:00pm SW 4 6 - - - - - - - 14.6 1023.8 0.0
01/06:30pm SSW 5 6 - - - - - - - 14.3 1023.8 0.0
01/06:00pm S 3 5 - - - - - - - 14.5 1023.8 0.0
01/05:30pm SSW 7 9 - - - - - - - 15.0 1023.8 0.0
01/05:00pm SSW 8 10 - - - - - - - 15.2 1023.9 0.0
01/04:30pm SSW 7 9 - - - - - - - 15.3 1023.9 0.0
01/04:00pm S 8 10 - - - - - - - 15.5 1023.8 0.0
01/03:30pm S 9 13 - - - - - - - 15.6 1023.7 0.0
01/03:00pm S 8 11 - - - - - - - 15.6 1023.9 0.0
01/02:30pm S 9 11 - - - - - - - 15.6 1023.9 0.0
01/02:00pm SSE 10 13 - - - - - - - 16.4 1024.0 0.0
01/01:30pm S 10 12 - - - - - - - 16.3 1024.1 0.0
01/01:00pm SSE 7 11 - - - - - - - 16.1 1024.3 0.0
01/12:30pm SSE 7 10 - - - - - - - 15.9 1024.5 0.0
01/12:00pm SE 8 10 - - - - - - - 15.5 1024.8 0.0
01/11:30am SE 8 11 - - - - - - - 16.1 1025.0 0.0
01/11:00am ENE 6 11 - - - - - - - 16.1 1025.2 0.0
01/10:30am E 7 11 - - - - - - - 15.5 1025.3 0.0
01/10:00am E 7 10 - - - - - - - 15.1 1025.2 0.0
01/09:30am E 9 11 - - - - - - - 14.5 1025.3 0.0
01/09:00am ESE 8 13 - - - - - - - 15.3 1025.3 1.0
01/08:30am ESE 7 11 - - - - - - - 14.3 1025.2 1.0
01/08:00am ESE 7 11 - - - - - - - 13.7 1025.0 1.0
01/07:30am ESE 7 11 - - - - - - - 13.5 1024.7 1.0
01/07:00am ESE 7 11 - - - - - - - 13.2 1024.4 1.0
01/06:30am ESE 7 10 - - - - - - - 12.8 1024.1 1.0
01/06:00am ESE 8 11 - - - - - - - 12.6 1023.7 1.0
01/05:30am SE 12 15 - - - - - - - 13.3 1023.6 1.0
01/05:00am SE 12 17 - - - - - - - 13.7 1023.3 1.0
01/04:30am SE 13 17 - - - - - - - 13.7 1022.9 1.0
01/04:00am SE 13 18 - - - - - - - 13.5 1022.7 1.0
01/03:30am SE 11 16 - - - - - - - 13.5 1022.5 1.0
01/03:00am SSE 13 17 - - - - - - - 13.5 1022.6 1.0
01/02:30am SSE 14 17 - - - - - - - 14.0 1022.6 1.0
01/02:00am SSE 15 20 - - - - - - - 13.9 1022.8 1.0
01/01:30am SSE 17 20 - - - - - - - 14.0 1022.7 1.0
01/01:00am SSE 17 21 - - - - - - - 13.9 1022.9 1.0
01/12:30am SSE 19 25 - - - - - - - 14.0 1022.8 1.0
01/12:00am SSE 23 28 - - - - - - Recent precip. 13.7 1022.6 1.0
 
Date/Time
WST
Wind Sea
Height
m
Swell Vis
km
Cloud Weather Temp
°C
Press
MSL
hPa
Rain since
9am
mm
Dir  Spd
kts
Gust
kts
Height
m
Period
s
Dir
31/11:30pm S 29 35 - - - - - - - 13.1 1022.6 1.0
31/11:00pm S 28 35 - - - - - - - 13.1 1022.1 0.8
31/10:30pm S 25 32 - - - - - - - 14.1 1022.0 0.8
31/10:00pm S 23 28 - - - - - - - 14.7 1021.9 0.6
31/09:30pm S 24 30 - - - - - - - 14.9 1021.6 0.6
31/09:00pm S 24 30 - - - - - - - 15.3 1021.3 0.4
31/08:37pm S 23 29 - - - - - - - 15.3 1021.1 0.4
31/08:30pm S 23 30 - - - - - - - 15.3 1021.0 0.4
31/08:20pm WSW 13 31 - - - - - - - 15.9 1020.8 0.4
31/08:00pm W 15 21 - - - - - - - 16.5 1021.3 0.4
31/07:30pm W 11 16 - - - - - - - 18.0 1021.0 0.0
31/07:00pm W 14 18 - - - - - - - 18.2 1020.7 0.0
31/06:30pm W 16 21 - - - - - - - 18.2 1020.5 0.0
31/06:00pm W 14 20 - - - - - - - 18.0 1020.1 0.0
31/05:30pm W 14 18 - - - - - - - 18.4 1019.9 0.0
31/05:00pm WNW 16 24 - - - - - - - 18.2 1019.7 0.0
31/04:30pm WNW 16 21 - - - - - - - 19.1 1019.5 0.0
31/04:00pm WNW 14 17 - - - - - - - 19.4 1019.5 0.0
31/03:30pm WNW 15 18 - - - - - - - 19.6 1019.6 0.0
31/03:00pm WNW 14 18 - - - - - - - 20.3 1019.5 0.0
31/02:30pm WNW 15 18 - - - - - - - 20.3 1019.3 0.0
31/02:00pm WNW 15 19 - - - - - - - 20.3 1019.2 0.0
31/01:30pm NW 13 17 - - - - - - - 20.3 1019.0 0.0
31/01:00pm WNW 13 16 - - - - - - - 20.5 1019.2 0.0
31/12:30pm WNW 12 15 - - - - - - - 19.9 1019.2 0.0
31/12:00pm W 12 17 - - - - - - - 20.3 1019.3 0.0
31/11:30am NW 13 17 - - - - - - - 19.3 1019.5 0.0
31/11:00am WNW 11 14 - - - - - - - 20.1 1019.5 0.0
31/10:30am NW 12 15 - - - - - - - 19.8 1019.5 0.0
31/10:00am NW 10 13 - - - - - - - 19.2 1019.3 0.0
31/09:30am WNW 9 11 - - - - - - - 19.0 1019.3 0.0
31/09:00am WNW 11 13 - - - - - - - 18.7 1019.4 0.0
31/08:30am WNW 9 11 - - - - - - - 18.3 1019.3 0.0
31/08:00am WNW 8 11 - - - - - - - 17.8 1019.2 0.0
31/07:30am WNW 8 11 - - - - - - - 17.1 1019.0 0.0
31/07:00am WNW 8 10 - - - - - - - 16.6 1018.7 0.0
31/06:30am W 8 11 - - - - - - - 16.4 1018.5 0.0
31/06:00am W 8 10 - - - - - - - 16.5 1018.4 0.0
31/05:30am W 9 11 - - - - - - - 16.3 1018.1 0.0
31/05:00am W 8 10 - - - - - - - 16.4 1017.8 0.0
31/04:30am WNW 8 9 - - - - - - - 16.0 1017.8 0.0
31/04:00am W 6 7 - - - - - - - 16.5 1018.1 0.0
31/03:30am W 5 6 - - - - - - - 16.6 1018.2 0.0
31/03:00am W 4 5 - - - - - - - 16.9 1018.4 0.0
31/02:30am W 5 6 - - - - - - - 16.6 1018.5 0.0
31/02:00am WSW 5 6 - - - - - - - 16.5 1018.5 0.0

Other formats

Comma delimited format used in spreadsheet applications
http://www.bom.gov.au/fwo/IDW60701/IDW60701.94602.axf

JavaScript Object Notation format (JSON) in row-major order
http://www.bom.gov.au/fwo/IDW60701/IDW60701.94602.json

Data quality

Most of these data are generated automatically and are frequently updated. Quality checks on data are not normally performed. It is possible for incorrect values to appear. Refer to information at About Latest Weather Observations and please check the disclaimer before using these data.